sensor_id;sensor_type;location;lat;lon;timestamp;temperature;humidity
13606;DHT22;6874;52.084;5.090;2023-04-01T00:01:39;10.80;99.90
13606;DHT22;6874;52.084;5.090;2023-04-01T00:04:05;10.80;99.90
13606;DHT22;6874;52.084;5.090;2023-04-01T00:06:30;10.80;99.90
13606;DHT22;6874;52.084;5.090;2023-04-01T00:08:56;10.80;99.90
13606;DHT22;6874;52.084;5.090;2023-04-01T00:11:22;10.80;99.90
13606;DHT22;6874;52.084;5.090;2023-04-01T00:13:48;10.80;99.90
13606;DHT22;6874;52.084;5.090;2023-04-01T00:16:14;10.80;99.90
13606;DHT22;6874;52.084;5.090;2023-04-01T00:18:40;10.80;99.90
13606;DHT22;6874;52.084;5.090;2023-04-01T00:21:06;10.80;99.90
13606;DHT22;6874;52.084;5.090;2023-04-01T00:23:32;10.70;99.90
13606;DHT22;6874;52.084;5.090;2023-04-01T00:26:02;10.80;99.90
13606;DHT22;6874;52.084;5.090;2023-04-01T00:28:28;10.80;99.90
13606;DHT22;6874;52.084;5.090;2023-04-01T00:30:54;10.80;99.90
13606;DHT22;6874;52.084;5.090;2023-04-01T00:33:20;10.70;99.90
13606;DHT22;6874;52.084;5.090;2023-04-01T00:35:46;10.70;99.90
13606;DHT22;6874;52.084;5.090;2023-04-01T00:38:12;10.70;99.90
13606;DHT22;6874;52.084;5.090;2023-04-01T00:40:44;10.70;99.90
13606;DHT22;6874;52.084;5.090;2023-04-01T00:43:12;10.70;99.90
13606;DHT22;6874;52.084;5.090;2023-04-01T00:45:42;10.70;99.90
13606;DHT22;6874;52.084;5.090;2023-04-01T00:48:11;10.70;99.90
13606;DHT22;6874;52.084;5.090;2023-04-01T00:50:42;10.70;99.90
13606;DHT22;6874;52.084;5.090;2023-04-01T00:53:09;10.70;99.90
13606;DHT22;6874;52.084;5.090;2023-04-01T00:55:38;10.70;99.90
13606;DHT22;6874;52.084;5.090;2023-04-01T00:58:08;10.60;99.90
13606;DHT22;6874;52.084;5.090;2023-04-01T01:00:34;10.60;99.90
13606;DHT22;6874;52.084;5.090;2023-04-01T01:03:01;10.70;99.90
13606;DHT22;6874;52.084;5.090;2023-04-01T01:09:03;10.60;99.90
13606;DHT22;6874;52.084;5.090;2023-04-01T01:11:58;10.60;99.90
13606;DHT22;6874;52.084;5.090;2023-04-01T01:14:31;10.60;99.90
13606;DHT22;6874;52.084;5.090;2023-04-01T01:22:43;10.60;99.90
13606;DHT22;6874;52.084;5.090;2023-04-01T01:28:01;10.50;99.90
13606;DHT22;6874;52.084;5.090;2023-04-01T01:36:10;10.50;99.90
13606;DHT22;6874;52.084;5.090;2023-04-01T01:38:37;10.50;99.90
13606;DHT22;6874;52.084;5.090;2023-04-01T01:41:05;10.50;99.90
13606;DHT22;6874;52.084;5.090;2023-04-01T01:43:39;10.50;99.90
13606;DHT22;6874;52.084;5.090;2023-04-01T01:46:10;10.50;99.90
13606;DHT22;6874;52.084;5.090;2023-04-01T01:48:37;10.50;99.90
13606;DHT22;6874;52.084;5.090;2023-04-01T01:51:05;10.50;99.90
13606;DHT22;6874;52.084;5.090;2023-04-01T01:53:31;10.60;99.90
13606;DHT22;6874;52.084;5.090;2023-04-01T01:55:57;10.50;99.90
13606;DHT22;6874;52.084;5.090;2023-04-01T02:00:54;10.50;99.90
13606;DHT22;6874;52.084;5.090;2023-04-01T02:03:23;10.50;99.90
13606;DHT22;6874;52.084;5.090;2023-04-01T02:05:52;10.40;99.90
13606;DHT22;6874;52.084;5.090;2023-04-01T02:08:39;10.40;99.90
13606;DHT22;6874;52.084;5.090;2023-04-01T02:11:09;10.40;99.90
13606;DHT22;6874;52.084;5.090;2023-04-01T02:13:43;10.40;99.90
13606;DHT22;6874;52.084;5.090;2023-04-01T02:16:16;10.40;99.90
13606;DHT22;6874;52.084;5.090;2023-04-01T02:18:45;10.40;99.90
13606;DHT22;6874;52.084;5.090;2023-04-01T02:21:13;10.40;99.90
13606;DHT22;6874;52.084;5.090;2023-04-01T02:23:40;10.40;99.90
13606;DHT22;6874;52.084;5.090;2023-04-01T02:26:07;10.40;99.90
13606;DHT22;6874;52.084;5.090;2023-04-01T02:28:37;10.40;99.90
13606;DHT22;6874;52.084;5.090;2023-04-01T02:31:03;10.40;99.90
13606;DHT22;6874;52.084;5.090;2023-04-01T02:33:30;10.40;99.90
13606;DHT22;6874;52.084;5.090;2023-04-01T02:35:57;10.40;99.90
13606;DHT22;6874;52.084;5.090;2023-04-01T02:38:23;10.30;99.90
13606;DHT22;6874;52.084;5.090;2023-04-01T02:40:51;10.30;99.90
13606;DHT22;6874;52.084;5.090;2023-04-01T02:43:21;10.30;99.90
13606;DHT22;6874;52.084;5.090;2023-04-01T02:45:46;10.30;99.90
13606;DHT22;6874;52.084;5.090;2023-04-01T02:48:12;10.40;99.90
13606;DHT22;6874;52.084;5.090;2023-04-01T02:50:39;10.30;99.90
13606;DHT22;6874;52.084;5.090;2023-04-01T02:53:05;10.30;99.90
13606;DHT22;6874;52.084;5.090;2023-04-01T02:55:32;10.40;99.90
13606;DHT22;6874;52.084;5.090;2023-04-01T02:57:58;10.30;99.90
13606;DHT22;6874;52.084;5.090;2023-04-01T03:00:24;10.30;99.90
13606;DHT22;6874;52.084;5.090;2023-04-01T03:02:49;10.30;99.90
13606;DHT22;6874;52.084;5.090;2023-04-01T03:05:15;10.30;99.90
13606;DHT22;6874;52.084;5.090;2023-04-01T03:07:41;10.30;99.90
13606;DHT22;6874;52.084;5.090;2023-04-01T03:10:07;10.20;99.90
13606;DHT22;6874;52.084;5.090;2023-04-01T03:12:33;10.30;99.90
13606;DHT22;6874;52.084;5.090;2023-04-01T03:14:58;10.30;99.90
13606;DHT22;6874;52.084;5.090;2023-04-01T03:17:24;10.30;99.90
13606;DHT22;6874;52.084;5.090;2023-04-01T03:19:50;10.30;99.90
13606;DHT22;6874;52.084;5.090;2023-04-01T03:22:15;10.30;99.90
13606;DHT22;6874;52.084;5.090;2023-04-01T03:24:41;10.20;99.90
13606;DHT22;6874;52.084;5.090;2023-04-01T03:27:06;10.30;99.90
13606;DHT22;6874;52.084;5.090;2023-04-01T03:29:32;10.20;99.90
13606;DHT22;6874;52.084;5.090;2023-04-01T03:31:57;10.20;99.90
13606;DHT22;6874;52.084;5.090;2023-04-01T03:34:25;10.30;99.90
13606;DHT22;6874;52.084;5.090;2023-04-01T03:36:51;10.40;99.90
13606;DHT22;6874;52.084;5.090;2023-04-01T03:39:17;10.20;99.90
13606;DHT22;6874;52.084;5.090;2023-04-01T03:41:45;10.20;99.90
13606;DHT22;6874;52.084;5.090;2023-04-01T03:44:11;10.30;99.90
13606;DHT22;6874;52.084;5.090;2023-04-01T03:46:36;10.20;99.90
13606;DHT22;6874;52.084;5.090;2023-04-01T03:49:02;10.20;99.90
13606;DHT22;6874;52.084;5.090;2023-04-01T03:51:28;10.20;99.90
13606;DHT22;6874;52.084;5.090;2023-04-01T03:53:53;10.30;99.90
13606;DHT22;6874;52.084;5.090;2023-04-01T03:56:19;10.20;99.90
13606;DHT22;6874;52.084;5.090;2023-04-01T03:58:45;10.20;99.90
13606;DHT22;6874;52.084;5.090;2023-04-01T04:01:19;10.20;99.90
13606;DHT22;6874;52.084;5.090;2023-04-01T04:03:46;10.20;99.90
13606;DHT22;6874;52.084;5.090;2023-04-01T04:06:13;10.20;99.90
13606;DHT22;6874;52.084;5.090;2023-04-01T04:08:39;10.20;99.90
13606;DHT22;6874;52.084;5.090;2023-04-01T04:11:05;10.20;99.90
13606;DHT22;6874;52.084;5.090;2023-04-01T04:13:30;10.20;99.90
13606;DHT22;6874;52.084;5.090;2023-04-01T04:15:56;10.20;99.90
13606;DHT22;6874;52.084;5.090;2023-04-01T04:18:21;10.20;99.90
13606;DHT22;6874;52.084;5.090;2023-04-01T04:20:50;10.30;99.90
13606;DHT22;6874;52.084;5.090;2023-04-01T04:23:17;10.30;99.90
13606;DHT22;6874;52.084;5.090;2023-04-01T04:28:20;10.30;99.90
13606;DHT22;6874;52.084;5.090;2023-04-01T04:30:46;10.30;99.90
13606;DHT22;6874;52.084;5.090;2023-04-01T04:33:12;10.20;99.90
13606;DHT22;6874;52.084;5.090;2023-04-01T04:35:37;10.30;99.90
13606;DHT22;6874;52.084;5.090;2023-04-01T04:38:03;10.30;99.90
13606;DHT22;6874;52.084;5.090;2023-04-01T04:40:28;10.30;99.90
13606;DHT22;6874;52.084;5.090;2023-04-01T04:42:54;10.30;99.90
13606;DHT22;6874;52.084;5.090;2023-04-01T04:45:19;10.30;99.90
13606;DHT22;6874;52.084;5.090;2023-04-01T04:47:45;10.30;99.90
13606;DHT22;6874;52.084;5.090;2023-04-01T04:50:11;10.20;99.90
13606;DHT22;6874;52.084;5.090;2023-04-01T04:52:37;10.30;99.90
13606;DHT22;6874;52.084;5.090;2023-04-01T04:55:02;10.30;99.90
13606;DHT22;6874;52.084;5.090;2023-04-01T04:57:28;10.30;99.90
13606;DHT22;6874;52.084;5.090;2023-04-01T04:59:53;10.30;99.90
13606;DHT22;6874;52.084;5.090;2023-04-01T05:02:19;10.30;99.90
13606;DHT22;6874;52.084;5.090;2023-04-01T05:04:45;10.30;99.90
13606;DHT22;6874;52.084;5.090;2023-04-01T05:07:10;10.30;99.90
13606;DHT22;6874;52.084;5.090;2023-04-01T05:09:36;10.20;99.90
13606;DHT22;6874;52.084;5.090;2023-04-01T05:12:02;10.30;99.90
13606;DHT22;6874;52.084;5.090;2023-04-01T05:14:27;10.30;99.90
13606;DHT22;6874;52.084;5.090;2023-04-01T05:16:53;10.30;99.90
13606;DHT22;6874;52.084;5.090;2023-04-01T05:19:20;10.30;99.90
13606;DHT22;6874;52.084;5.090;2023-04-01T05:21:45;10.30;99.90
13606;DHT22;6874;52.084;5.090;2023-04-01T05:24:11;10.30;99.90
13606;DHT22;6874;52.084;5.090;2023-04-01T05:26:36;10.30;99.90
13606;DHT22;6874;52.084;5.090;2023-04-01T05:29:03;10.30;99.90
13606;DHT22;6874;52.084;5.090;2023-04-01T05:31:29;10.30;99.90
13606;DHT22;6874;52.084;5.090;2023-04-01T05:33:55;10.40;99.90
13606;DHT22;6874;52.084;5.090;2023-04-01T05:36:21;10.30;99.90
13606;DHT22;6874;52.084;5.090;2023-04-01T05:38:47;10.30;99.90
13606;DHT22;6874;52.084;5.090;2023-04-01T05:41:13;10.30;99.90
13606;DHT22;6874;52.084;5.090;2023-04-01T05:43:40;10.30;99.90
13606;DHT22;6874;52.084;5.090;2023-04-01T05:46:06;10.30;99.90
13606;DHT22;6874;52.084;5.090;2023-04-01T05:48:33;10.30;99.90
13606;DHT22;6874;52.084;5.090;2023-04-01T05:50:59;10.30;99.90
13606;DHT22;6874;52.084;5.090;2023-04-01T05:53:24;10.30;99.90
13606;DHT22;6874;52.084;5.090;2023-04-01T05:55:50;10.30;99.90
13606;DHT22;6874;52.084;5.090;2023-04-01T05:58:15;10.30;99.90
13606;DHT22;6874;52.084;5.090;2023-04-01T06:00:41;10.30;99.90
13606;DHT22;6874;52.084;5.090;2023-04-01T06:03:07;10.30;99.90
13606;DHT22;6874;52.084;5.090;2023-04-01T06:05:43;10.30;99.90
13606;DHT22;6874;52.084;5.090;2023-04-01T06:08:15;10.30;99.90
13606;DHT22;6874;52.084;5.090;2023-04-01T06:13:58;10.30;99.90
13606;DHT22;6874;52.084;5.090;2023-04-01T06:19:39;10.30;99.90
13606;DHT22;6874;52.084;5.090;2023-04-01T06:22:46;10.30;99.90
13606;DHT22;6874;52.084;5.090;2023-04-01T06:27:56;10.30;99.90
13606;DHT22;6874;52.084;5.090;2023-04-01T06:30:43;10.30;99.90
13606;DHT22;6874;52.084;5.090;2023-04-01T06:42:10;10.30;99.90
13606;DHT22;6874;52.084;5.090;2023-04-01T06:44:16;10.30;99.90
13606;DHT22;6874;52.084;5.090;2023-04-01T06:46:58;10.30;99.90
13606;DHT22;6874;52.084;5.090;2023-04-01T06:49:41;10.30;99.90
13606;DHT22;6874;52.084;5.090;2023-04-01T06:52:16;10.30;99.90
13606;DHT22;6874;52.084;5.090;2023-04-01T06:54:51;10.30;99.90
13606;DHT22;6874;52.084;5.090;2023-04-01T06:57:38;10.30;99.90
13606;DHT22;6874;52.084;5.090;2023-04-01T07:00:21;10.30;99.90
13606;DHT22;6874;52.084;5.090;2023-04-01T07:05:42;10.30;99.90
13606;DHT22;6874;52.084;5.090;2023-04-01T07:08:19;10.30;99.90
13606;DHT22;6874;52.084;5.090;2023-04-01T07:11:05;10.30;99.90
13606;DHT22;6874;52.084;5.090;2023-04-01T07:13:51;10.30;99.90
13606;DHT22;6874;52.084;5.090;2023-04-01T07:16:32;10.30;99.90
13606;DHT22;6874;52.084;5.090;2023-04-01T07:24:51;10.30;99.90
13606;DHT22;6874;52.084;5.090;2023-04-01T07:27:17;10.30;99.90
13606;DHT22;6874;52.084;5.090;2023-04-01T07:29:42;10.30;99.90
13606;DHT22;6874;52.084;5.090;2023-04-01T07:32:30;10.30;99.90
13606;DHT22;6874;52.084;5.090;2023-04-01T07:46:13;10.30;99.90
13606;DHT22;6874;52.084;5.090;2023-04-01T07:51:29;10.30;99.90
13606;DHT22;6874;52.084;5.090;2023-04-01T07:54:22;10.30;99.90
13606;DHT22;6874;52.084;5.090;2023-04-01T07:59:58;10.40;99.90
13606;DHT22;6874;52.084;5.090;2023-04-01T08:10:40;10.40;99.90
13606;DHT22;6874;52.084;5.090;2023-04-01T08:13:31;10.40;99.90
13606;DHT22;6874;52.084;5.090;2023-04-01T08:19:26;10.40;99.90
13606;DHT22;6874;52.084;5.090;2023-04-01T08:22:02;10.40;99.90
13606;DHT22;6874;52.084;5.090;2023-04-01T08:24:41;10.40;99.90
13606;DHT22;6874;52.084;5.090;2023-04-01T08:27:37;10.40;99.90
13606;DHT22;6874;52.084;5.090;2023-04-01T08:30:06;10.40;99.90
13606;DHT22;6874;52.084;5.090;2023-04-01T08:32:44;10.40;99.90
13606;DHT22;6874;52.084;5.090;2023-04-01T08:35:27;10.40;99.90
13606;DHT22;6874;52.084;5.090;2023-04-01T08:37:55;10.40;99.90
13606;DHT22;6874;52.084;5.090;2023-04-01T08:40:48;10.40;99.90
13606;DHT22;6874;52.084;5.090;2023-04-01T08:43:47;10.50;99.90
13606;DHT22;6874;52.084;5.090;2023-04-01T08:46:29;10.40;99.90
13606;DHT22;6874;52.084;5.090;2023-04-01T08:49:17;10.50;99.90
13606;DHT22;6874;52.084;5.090;2023-04-01T08:52:16;10.50;99.90
13606;DHT22;6874;52.084;5.090;2023-04-01T09:05:36;10.50;99.90
13606;DHT22;6874;52.084;5.090;2023-04-01T09:08:15;10.50;99.90
13606;DHT22;6874;52.084;5.090;2023-04-01T09:13:42;10.60;99.90
13606;DHT22;6874;52.084;5.090;2023-04-01T09:22:03;10.70;99.90
13606;DHT22;6874;52.084;5.090;2023-04-01T09:24:40;10.70;99.90
13606;DHT22;6874;52.084;5.090;2023-04-01T09:27:28;10.70;99.90
13606;DHT22;6874;52.084;5.090;2023-04-01T09:30:07;10.70;99.90
13606;DHT22;6874;52.084;5.090;2023-04-01T09:38:39;10.80;99.90
13606;DHT22;6874;52.084;5.090;2023-04-01T09:41:41;10.80;99.90
13606;DHT22;6874;52.084;5.090;2023-04-01T09:52:31;10.90;99.90
13606;DHT22;6874;52.084;5.090;2023-04-01T10:01:11;11.00;99.90
13606;DHT22;6874;52.084;5.090;2023-04-01T10:24:03;11.20;99.90
13606;DHT22;6874;52.084;5.090;2023-04-01T10:38:20;11.30;99.90
13606;DHT22;6874;52.084;5.090;2023-04-01T10:44:14;11.40;99.90
13606;DHT22;6874;52.084;5.090;2023-04-01T11:25:14;11.60;99.90
13606;DHT22;6874;52.084;5.090;2023-04-01T11:33:29;11.80;99.90
13606;DHT22;6874;52.084;5.090;2023-04-01T11:39:03;11.80;99.90
13606;DHT22;6874;52.084;5.090;2023-04-01T11:44:22;11.90;99.90
13606;DHT22;6874;52.084;5.090;2023-04-01T11:52:53;11.90;99.90
13606;DHT22;6874;52.084;5.090;2023-04-01T11:55:53;12.00;99.90
13606;DHT22;6874;52.084;5.090;2023-04-01T12:01:17;12.00;99.90
13606;DHT22;6874;52.084;5.090;2023-04-01T12:07:15;12.00;99.90
13606;DHT22;6874;52.084;5.090;2023-04-01T12:15:54;12.00;99.90
13606;DHT22;6874;52.084;5.090;2023-04-01T12:18:41;12.00;99.90
13606;DHT22;6874;52.084;5.090;2023-04-01T12:24:13;11.90;99.90
13606;DHT22;6874;52.084;5.090;2023-04-01T12:32:45;11.90;99.90
13606;DHT22;6874;52.084;5.090;2023-04-01T12:40:39;12.00;99.90
13606;DHT22;6874;52.084;5.090;2023-04-01T12:54:44;12.00;99.90
13606;DHT22;6874;52.084;5.090;2023-04-01T12:57:46;12.00;99.90
13606;DHT22;6874;52.084;5.090;2023-04-01T13:00:33;12.00;99.90
13606;DHT22;6874;52.084;5.090;2023-04-01T13:06:05;12.00;99.90
13606;DHT22;6874;52.084;5.090;2023-04-01T13:08:51;12.00;99.90
13606;DHT22;6874;52.084;5.090;2023-04-01T13:14:40;12.00;99.90
13606;DHT22;6874;52.084;5.090;2023-04-01T13:28:16;12.10;99.90
13606;DHT22;6874;52.084;5.090;2023-04-01T13:38:48;12.20;99.90
13606;DHT22;6874;52.084;5.090;2023-04-01T13:43:51;12.30;99.90
13606;DHT22;6874;52.084;5.090;2023-04-01T13:49:25;12.30;99.90
13606;DHT22;6874;52.084;5.090;2023-04-01T13:55:10;12.40;99.90
13606;DHT22;6874;52.084;5.090;2023-04-01T14:14:46;12.10;99.90
13606;DHT22;6874;52.084;5.090;2023-04-01T14:20:21;12.10;99.90
13606;DHT22;6874;52.084;5.090;2023-04-01T14:25:55;12.10;99.90
13606;DHT22;6874;52.084;5.090;2023-04-01T14:28:43;12.00;99.90
13606;DHT22;6874;52.084;5.090;2023-04-01T14:34:22;12.00;99.90
13606;DHT22;6874;52.084;5.090;2023-04-01T14:39:52;11.90;99.90
13606;DHT22;6874;52.084;5.090;2023-04-01T14:48:17;11.90;99.90
13606;DHT22;6874;52.084;5.090;2023-04-01T14:50:43;11.90;99.90
13606;DHT22;6874;52.084;5.090;2023-04-01T15:12:17;11.80;99.90
13606;DHT22;6874;52.084;5.090;2023-04-01T15:14:51;11.80;99.90
13606;DHT22;6874;52.084;5.090;2023-04-01T15:17:35;11.80;99.90
13606;DHT22;6874;52.084;5.090;2023-04-01T15:28:39;11.70;99.90
13606;DHT22;6874;52.084;5.090;2023-04-01T15:37:05;11.70;99.90
13606;DHT22;6874;52.084;5.090;2023-04-01T15:39:57;11.70;99.90
13606;DHT22;6874;52.084;5.090;2023-04-01T15:45:37;11.70;99.90
13606;DHT22;6874;52.084;5.090;2023-04-01T15:48:19;11.60;99.90
13606;DHT22;6874;52.084;5.090;2023-04-01T15:59:17;11.60;99.90
13606;DHT22;6874;52.084;5.090;2023-04-01T16:01:55;11.50;99.90
13606;DHT22;6874;52.084;5.090;2023-04-01T16:13:38;11.50;99.90
13606;DHT22;6874;52.084;5.090;2023-04-01T16:16:23;11.50;99.90
13606;DHT22;6874;52.084;5.090;2023-04-01T16:19:12;11.50;99.90
13606;DHT22;6874;52.084;5.090;2023-04-01T16:21:53;11.50;99.90
13606;DHT22;6874;52.084;5.090;2023-04-01T16:32:37;11.40;99.90
13606;DHT22;6874;52.084;5.090;2023-04-01T16:38:05;11.40;99.90
13606;DHT22;6874;52.084;5.090;2023-04-01T16:41:07;11.40;99.90
13606;DHT22;6874;52.084;5.090;2023-04-01T16:43:38;11.30;99.90
13606;DHT22;6874;52.084;5.090;2023-04-01T16:51:45;11.30;99.90
13606;DHT22;6874;52.084;5.090;2023-04-01T16:56:48;11.30;99.90
13606;DHT22;6874;52.084;5.090;2023-04-01T16:59:27;11.30;99.90
13606;DHT22;6874;52.084;5.090;2023-04-01T17:02:17;11.30;99.90
13606;DHT22;6874;52.084;5.090;2023-04-01T17:27:08;11.10;99.90
13606;DHT22;6874;52.084;5.090;2023-04-01T17:30:17;11.10;99.90
13606;DHT22;6874;52.084;5.090;2023-04-01T17:33:05;11.10;99.90
13606;DHT22;6874;52.084;5.090;2023-04-01T17:35:52;11.00;99.90
13606;DHT22;6874;52.084;5.090;2023-04-01T17:41:16;11.00;99.90
13606;DHT22;6874;52.084;5.090;2023-04-01T17:44:07;11.00;99.90
13606;DHT22;6874;52.084;5.090;2023-04-01T17:49:36;10.90;99.90
13606;DHT22;6874;52.084;5.090;2023-04-01T17:54:41;10.90;99.90
13606;DHT22;6874;52.084;5.090;2023-04-01T17:57:34;10.80;99.90
13606;DHT22;6874;52.084;5.090;2023-04-01T18:00:29;10.80;99.90
13606;DHT22;6874;52.084;5.090;2023-04-01T18:11:59;10.70;99.90
13606;DHT22;6874;52.084;5.090;2023-04-01T18:17:32;10.70;99.90
13606;DHT22;6874;52.084;5.090;2023-04-01T18:22:53;10.60;99.90
13606;DHT22;6874;52.084;5.090;2023-04-01T18:25:41;10.60;99.90
13606;DHT22;6874;52.084;5.090;2023-04-01T18:38:49;10.50;99.90
13606;DHT22;6874;52.084;5.090;2023-04-01T18:44:52;10.50;99.90
13606;DHT22;6874;52.084;5.090;2023-04-01T18:56:05;10.40;99.90
13606;DHT22;6874;52.084;5.090;2023-04-01T18:58:54;10.50;99.90
13606;DHT22;6874;52.084;5.090;2023-04-01T19:01:39;10.40;99.90
13606;DHT22;6874;52.084;5.090;2023-04-01T19:04:19;10.40;99.90
13606;DHT22;6874;52.084;5.090;2023-04-01T19:06:56;10.30;99.90
13606;DHT22;6874;52.084;5.090;2023-04-01T19:09:27;10.30;99.90
13606;DHT22;6874;52.084;5.090;2023-04-01T19:12:30;10.30;99.90
13606;DHT22;6874;52.084;5.090;2023-04-01T19:20:16;10.30;99.90
13606;DHT22;6874;52.084;5.090;2023-04-01T19:28:28;10.20;99.90
13606;DHT22;6874;52.084;5.090;2023-04-01T19:31:02;10.20;99.90
13606;DHT22;6874;52.084;5.090;2023-04-01T19:33:59;10.10;99.90
13606;DHT22;6874;52.084;5.090;2023-04-01T19:42:19;10.10;99.90
13606;DHT22;6874;52.084;5.090;2023-04-01T19:50:51;10.10;99.90
13606;DHT22;6874;52.084;5.090;2023-04-01T19:56:21;10.00;99.90
13606;DHT22;6874;52.084;5.090;2023-04-01T19:59:54;10.00;99.90
13606;DHT22;6874;52.084;5.090;2023-04-01T20:04:44;9.90;99.90
13606;DHT22;6874;52.084;5.090;2023-04-01T20:07:34;9.90;99.90
13606;DHT22;6874;52.084;5.090;2023-04-01T20:10:09;9.90;99.90
13606;DHT22;6874;52.084;5.090;2023-04-01T20:12:49;9.90;99.90
13606;DHT22;6874;52.084;5.090;2023-04-01T20:15:36;9.90;99.90
13606;DHT22;6874;52.084;5.090;2023-04-01T20:18:12;9.80;99.90
13606;DHT22;6874;52.084;5.090;2023-04-01T20:20:39;9.80;99.90
13606;DHT22;6874;52.084;5.090;2023-04-01T20:26:14;9.80;99.90
13606;DHT22;6874;52.084;5.090;2023-04-01T20:29:07;9.80;99.90
13606;DHT22;6874;52.084;5.090;2023-04-01T20:31:44;9.70;99.90
13606;DHT22;6874;52.084;5.090;2023-04-01T20:42:46;9.60;99.90
13606;DHT22;6874;52.084;5.090;2023-04-01T20:51:05;9.60;99.90
13606;DHT22;6874;52.084;5.090;2023-04-01T20:53:51;9.60;99.90
13606;DHT22;6874;52.084;5.090;2023-04-01T21:02:16;9.50;99.90
13606;DHT22;6874;52.084;5.090;2023-04-01T21:05:11;9.50;99.90
13606;DHT22;6874;52.084;5.090;2023-04-01T21:07:49;9.40;99.90
13606;DHT22;6874;52.084;5.090;2023-04-01T21:18:48;9.30;99.90
13606;DHT22;6874;52.084;5.090;2023-04-01T21:21:44;9.30;99.90
13606;DHT22;6874;52.084;5.090;2023-04-01T21:27:23;9.30;99.90
13606;DHT22;6874;52.084;5.090;2023-04-01T21:38:25;9.20;99.90
13606;DHT22;6874;52.084;5.090;2023-04-01T21:49:14;9.10;99.90
13606;DHT22;6874;52.084;5.090;2023-04-01T21:52:07;9.10;99.90
13606;DHT22;6874;52.084;5.090;2023-04-01T22:00:42;9.10;99.90
13606;DHT22;6874;52.084;5.090;2023-04-01T22:03:39;9.10;99.90
13606;DHT22;6874;52.084;5.090;2023-04-01T22:06:19;9.00;99.90
13606;DHT22;6874;52.084;5.090;2023-04-01T22:08:49;9.00;99.90
13606;DHT22;6874;52.084;5.090;2023-04-01T22:11:44;9.00;99.90
13606;DHT22;6874;52.084;5.090;2023-04-01T22:14:22;9.00;99.90
13606;DHT22;6874;52.084;5.090;2023-04-01T22:17:23;9.00;99.90
13606;DHT22;6874;52.084;5.090;2023-04-01T22:20:14;8.90;99.90
13606;DHT22;6874;52.084;5.090;2023-04-01T22:22:54;8.90;99.90
13606;DHT22;6874;52.084;5.090;2023-04-01T22:25:51;8.90;99.90
13606;DHT22;6874;52.084;5.090;2023-04-01T22:28:27;8.90;99.90
13606;DHT22;6874;52.084;5.090;2023-04-01T22:30:59;8.90;99.90
13606;DHT22;6874;52.084;5.090;2023-04-01T22:33:30;8.80;99.90
13606;DHT22;6874;52.084;5.090;2023-04-01T22:39:10;8.80;99.90
13606;DHT22;6874;52.084;5.090;2023-04-01T22:42:08;8.80;99.90
13606;DHT22;6874;52.084;5.090;2023-04-01T22:44:56;8.80;99.90
13606;DHT22;6874;52.084;5.090;2023-04-01T22:47:46;8.80;99.90
13606;DHT22;6874;52.084;5.090;2023-04-01T22:50:25;8.70;99.90
13606;DHT22;6874;52.084;5.090;2023-04-01T22:55:53;8.70;99.90
13606;DHT22;6874;52.084;5.090;2023-04-01T22:58:42;8.70;99.90
13606;DHT22;6874;52.084;5.090;2023-04-01T23:01:22;8.70;99.90
13606;DHT22;6874;52.084;5.090;2023-04-01T23:03:51;8.60;99.90
13606;DHT22;6874;52.084;5.090;2023-04-01T23:06:24;8.60;99.90
13606;DHT22;6874;52.084;5.090;2023-04-01T23:09:25;8.60;99.90
13606;DHT22;6874;52.084;5.090;2023-04-01T23:12:10;8.60;99.90
13606;DHT22;6874;52.084;5.090;2023-04-01T23:14:53;8.60;99.90
13606;DHT22;6874;52.084;5.090;2023-04-01T23:17:31;8.60;99.90
13606;DHT22;6874;52.084;5.090;2023-04-01T23:23:15;8.50;99.90
13606;DHT22;6874;52.084;5.090;2023-04-01T23:25:54;8.50;99.90
13606;DHT22;6874;52.084;5.090;2023-04-01T23:34:39;8.50;99.90
13606;DHT22;6874;52.084;5.090;2023-04-01T23:36:49;8.40;99.90
13606;DHT22;6874;52.084;5.090;2023-04-01T23:39:41;8.40;99.90
13606;DHT22;6874;52.084;5.090;2023-04-01T23:44:52;8.40;99.90
13606;DHT22;6874;52.084;5.090;2023-04-01T23:47:39;8.40;99.90
13606;DHT22;6874;52.084;5.090;2023-04-01T23:50:14;8.40;99.90
13606;DHT22;6874;52.084;5.090;2023-04-01T23:52:46;8.30;99.90
13606;DHT22;6874;52.084;5.090;2023-04-01T23:55:13;8.40;99.90
13606;DHT22;6874;52.084;5.090;2023-04-01T23:57:39;8.30;99.90
